createdAt,value
2022-10-23T00:00:39.741Z,10.90
2022-10-23T00:03:06.562Z,11.40
2022-10-23T00:05:33.944Z,13.80
2022-10-23T00:08:01.055Z,13.00
2022-10-23T00:10:28.494Z,13.20
2022-10-23T00:12:55.324Z,12.70
2022-10-23T00:15:23.613Z,12.80
2022-10-23T00:17:50.662Z,12.40
2022-10-23T00:20:18.330Z,12.30
2022-10-23T00:22:45.280Z,13.40
2022-10-23T00:25:14.086Z,12.50
2022-10-23T00:27:41.152Z,12.20
2022-10-23T00:30:08.719Z,12.80
2022-10-23T00:32:35.444Z,12.80
2022-10-23T00:35:02.257Z,12.10
2022-10-23T00:37:29.003Z,11.80
2022-10-23T00:39:55.760Z,12.60
2022-10-23T00:42:23.047Z,12.10
2022-10-23T00:44:49.781Z,11.40
2022-10-23T00:47:18.060Z,12.50
2022-10-23T00:49:44.820Z,11.30
2022-10-23T00:52:13.752Z,11.30
2022-10-23T00:54:43.607Z,10.60
2022-10-23T00:57:14.523Z,10.90
2022-10-23T00:59:41.883Z,12.20
2022-10-23T01:02:09.369Z,11.90
2022-10-23T01:04:37.760Z,11.10
2022-10-23T01:07:17.713Z,12.50
2022-10-23T01:10:15.331Z,14.80
2022-10-23T01:12:45.057Z,15.30
2022-10-23T01:15:29.512Z,14.70
2022-10-23T01:18:05.459Z,12.30
2022-10-23T01:20:37.778Z,13.10
2022-10-23T01:23:32.260Z,11.90
2022-10-23T01:26:10.151Z,12.70
2022-10-23T01:28:44.361Z,11.90
2022-10-23T01:31:17.502Z,12.80
2022-10-23T01:33:59.962Z,13.50
2022-10-23T01:36:30.468Z,13.50
2022-10-23T01:39:07.734Z,13.40
2022-10-23T01:41:58.123Z,12.80
2022-10-23T01:44:34.005Z,10.10
2022-10-23T01:47:03.960Z,9.90
2022-10-23T01:49:32.475Z,12.00
2022-10-23T01:52:03.147Z,12.20
2022-10-23T01:54:34.265Z,12.20
2022-10-23T01:57:02.859Z,11.40
2022-10-23T01:59:37.494Z,11.40
2022-10-23T02:02:05.938Z,11.60
2022-10-23T02:04:46.428Z,10.70
2022-10-23T02:07:13.234Z,10.40
2022-10-23T02:09:40.228Z,10.70
2022-10-23T02:15:07.088Z,11.90
2022-10-23T02:17:55.005Z,11.30
2022-10-23T02:20:34.128Z,10.80
2022-10-23T02:23:25.732Z,10.00
2022-10-23T02:25:59.705Z,10.40
2022-10-23T02:28:34.563Z,9.50
2022-10-23T02:31:03.399Z,10.00
2022-10-23T02:33:31.612Z,9.70
2022-10-23T02:35:58.505Z,9.60
2022-10-23T02:38:51.552Z,8.00
2022-10-23T02:41:27.430Z,8.10
2022-10-23T02:43:57.076Z,8.10
2022-10-23T02:46:55.440Z,7.50
2022-10-23T02:49:45.686Z,7.00
2022-10-23T02:52:29.949Z,7.30
2022-10-23T02:55:17.573Z,8.30
2022-10-23T02:58:20.333Z,8.40
2022-10-23T03:00:53.128Z,7.50
2022-10-23T03:03:27.852Z,7.20
2022-10-23T03:05:54.829Z,7.20
2022-10-23T03:08:21.920Z,9.30
2022-10-23T03:13:20.287Z,9.90
2022-10-23T03:15:47.059Z,9.00
2022-10-23T03:18:13.859Z,8.80
2022-10-23T03:20:40.585Z,7.50
2022-10-23T03:23:07.431Z,7.00
2022-10-23T03:25:34.204Z,6.20
2022-10-23T03:28:00.926Z,6.10
2022-10-23T03:30:27.582Z,6.30
2022-10-23T03:32:54.319Z,7.10
2022-10-23T03:35:20.988Z,8.80
2022-10-23T03:37:47.760Z,11.40
2022-10-23T03:40:14.615Z,11.70
2022-10-23T03:42:41.322Z,11.80
2022-10-23T03:45:08.409Z,9.80
2022-10-23T03:47:35.785Z,9.20
2022-10-23T03:50:02.512Z,8.90
2022-10-23T03:52:29.194Z,8.80
2022-10-23T03:54:55.974Z,7.80
2022-10-23T03:57:22.674Z,7.40
2022-10-23T03:59:49.330Z,7.40
2022-10-23T04:02:16.220Z,7.10
2022-10-23T04:04:42.929Z,7.00
2022-10-23T04:07:10.080Z,6.80
2022-10-23T04:09:36.973Z,6.80
2022-10-23T04:12:03.858Z,6.60
2022-10-23T04:14:30.531Z,6.80
2022-10-23T04:16:57.314Z,7.00
2022-10-23T04:19:24.024Z,5.90
2022-10-23T04:21:50.770Z,5.40
2022-10-23T04:24:17.611Z,6.30
2022-10-23T04:26:44.311Z,6.50
2022-10-23T04:29:11.607Z,6.40
2022-10-23T04:31:38.329Z,6.50
2022-10-23T04:36:32.909Z,6.80
2022-10-23T04:38:59.690Z,6.70
2022-10-23T04:41:26.404Z,6.70
2022-10-23T04:43:53.123Z,6.40
2022-10-23T04:46:19.961Z,7.90
2022-10-23T04:48:46.643Z,6.50
2022-10-23T04:51:13.348Z,6.70
2022-10-23T04:53:40.186Z,6.60
2022-10-23T04:56:07.133Z,7.30
2022-10-23T04:58:33.806Z,7.90
2022-10-23T05:01:00.661Z,7.50
2022-10-23T05:03:27.621Z,8.10
2022-10-23T05:05:56.090Z,7.30
2022-10-23T05:08:23.741Z,6.30
2022-10-23T05:10:50.660Z,6.30
2022-10-23T05:13:20.084Z,6.80
2022-10-23T05:15:48.447Z,7.30
2022-10-23T05:18:35.735Z,7.80
2022-10-23T05:21:10.321Z,10.00
2022-10-23T05:23:38.808Z,10.30
2022-10-23T05:26:05.723Z,10.10
2022-10-23T05:28:32.466Z,10.40
2022-10-23T05:31:01.310Z,11.30
2022-10-23T05:33:29.648Z,10.70
2022-10-23T05:35:57.107Z,10.60
2022-10-23T05:38:23.995Z,10.60
2022-10-23T05:40:54.337Z,9.80
2022-10-23T05:43:21.128Z,10.40
2022-10-23T05:45:47.803Z,10.30
2022-10-23T05:48:22.849Z,10.10
2022-10-23T05:51:08.264Z,8.20
2022-10-23T05:53:36.273Z,8.20
2022-10-23T05:56:06.752Z,7.40
2022-10-23T05:58:34.280Z,8.30
2022-10-23T06:01:06.599Z,8.00
2022-10-23T06:03:33.657Z,8.50
2022-10-23T06:06:00.496Z,8.80
2022-10-23T06:08:27.218Z,8.50
2022-10-23T06:10:54.064Z,8.50
2022-10-23T06:13:20.900Z,8.30
2022-10-23T06:15:47.956Z,9.30
2022-10-23T06:18:14.735Z,9.30
2022-10-23T06:20:41.505Z,8.10
2022-10-23T06:23:08.631Z,8.50
2022-10-23T06:25:35.303Z,8.50
2022-10-23T06:28:02.081Z,8.40
2022-10-23T06:30:28.849Z,7.70
2022-10-23T06:32:55.722Z,8.80
2022-10-23T06:35:22.476Z,8.20
2022-10-23T06:37:49.168Z,7.60
2022-10-23T06:40:15.827Z,7.70
2022-10-23T06:42:42.711Z,10.00
2022-10-23T06:45:09.735Z,9.00
2022-10-23T06:47:36.432Z,10.20
2022-10-23T06:50:03.208Z,10.00
2022-10-23T06:52:46.491Z,9.60
2022-10-23T06:55:14.691Z,11.10
2022-10-23T06:57:41.733Z,11.30
2022-10-23T07:00:09.935Z,12.10
2022-10-23T07:02:37.028Z,11.90
2022-10-23T07:05:04.983Z,12.30
2022-10-23T07:07:33.586Z,12.00
2022-10-23T07:10:00.421Z,12.70
2022-10-23T07:12:28.800Z,12.20
2022-10-23T07:14:55.543Z,12.00
2022-10-23T07:17:22.376Z,12.30
2022-10-23T07:19:49.096Z,11.40
2022-10-23T07:22:16.200Z,11.30
2022-10-23T07:24:43.502Z,10.60
2022-10-23T07:27:10.180Z,12.40
2022-10-23T07:29:37.195Z,12.20
2022-10-23T07:32:04.881Z,14.80
2022-10-23T07:34:32.300Z,14.90
2022-10-23T07:36:59.045Z,13.50
2022-10-23T07:39:26.053Z,13.00
2022-10-23T07:41:52.785Z,12.90
2022-10-23T07:44:21.073Z,12.90
2022-10-23T07:46:49.894Z,11.50
2022-10-23T07:49:16.608Z,11.60
2022-10-23T07:51:45.525Z,11.10
2022-10-23T07:54:15.703Z,11.70
2022-10-23T07:56:42.375Z,11.70
2022-10-23T07:59:13.455Z,11.30
2022-10-23T08:01:42.658Z,12.10
2022-10-23T08:04:10.912Z,11.80
2022-10-23T08:06:38.498Z,10.90
2022-10-23T08:09:06.804Z,11.00
2022-10-23T08:11:35.933Z,11.90
2022-10-23T08:14:04.816Z,11.70
2022-10-23T08:16:37.014Z,11.60
2022-10-23T08:19:07.075Z,11.20
2022-10-23T08:21:34.323Z,12.40
2022-10-23T08:24:01.641Z,11.60
2022-10-23T08:26:31.736Z,12.50
2022-10-23T08:29:00.042Z,12.80
2022-10-23T08:31:27.964Z,11.60
2022-10-23T08:33:54.678Z,11.40
2022-10-23T08:36:25.887Z,10.30
2022-10-23T08:38:55.195Z,11.10
2022-10-23T08:41:38.911Z,12.10
2022-10-23T08:44:28.370Z,11.20
2022-10-23T08:47:26.230Z,12.40
2022-10-23T08:49:57.962Z,11.60
2022-10-23T08:52:24.632Z,12.20
2022-10-23T08:55:19.603Z,11.50
2022-10-23T08:57:58.887Z,11.10
2022-10-23T09:00:25.721Z,11.80
2022-10-23T09:02:54.557Z,10.80
2022-10-23T09:05:31.001Z,10.90
2022-10-23T09:08:06.919Z,12.00
2022-10-23T09:11:23.320Z,12.80
2022-10-23T09:14:14.836Z,13.30
2022-10-23T09:17:05.153Z,12.50
2022-10-23T09:19:32.275Z,13.10
2022-10-23T09:21:59.531Z,13.00
2022-10-23T09:24:31.779Z,13.90
2022-10-23T09:27:00.756Z,13.90
2022-10-23T09:29:36.026Z,13.50
2022-10-23T09:32:07.178Z,13.50
2022-10-23T09:34:35.170Z,14.10
2022-10-23T09:37:23.094Z,14.90
2022-10-23T09:40:00.909Z,14.20
2022-10-23T09:42:27.691Z,13.20
2022-10-23T09:44:55.346Z,13.40
2022-10-23T09:47:25.388Z,12.60
2022-10-23T09:49:54.322Z,12.40
2022-10-23T09:52:37.075Z,12.80
2022-10-23T09:55:20.887Z,11.40
2022-10-23T09:57:48.038Z,11.30
2022-10-23T10:00:14.942Z,11.10
2022-10-23T10:02:58.332Z,11.30
2022-10-23T10:05:33.596Z,11.40
2022-10-23T10:08:15.629Z,10.80
2022-10-23T10:10:49.590Z,10.90
2022-10-23T10:13:32.909Z,10.40
2022-10-23T10:16:11.698Z,10.90
2022-10-23T10:18:42.575Z,10.10
2022-10-23T10:21:15.379Z,10.80
2022-10-23T10:24:04.364Z,10.40
2022-10-23T10:26:59.969Z,10.30
2022-10-23T10:29:43.359Z,10.90
2022-10-23T10:32:16.920Z,11.20
2022-10-23T10:34:50.508Z,11.10
2022-10-23T10:37:55.116Z,10.80
2022-10-23T10:40:58.787Z,9.70
2022-10-23T10:43:31.596Z,9.70
2022-10-23T10:46:10.635Z,9.20
2022-10-23T10:49:05.811Z,9.00
2022-10-23T10:52:00.956Z,8.20
2022-10-23T10:54:39.710Z,8.30
2022-10-23T10:57:21.868Z,7.20
2022-10-23T10:59:53.662Z,8.60
2022-10-23T11:02:38.029Z,7.00
2022-10-23T11:05:38.783Z,7.10
2022-10-23T11:08:44.406Z,6.80
2022-10-23T11:11:50.301Z,6.50
2022-10-23T11:14:19.824Z,5.90
2022-10-23T11:16:50.656Z,6.30
2022-10-23T11:19:34.673Z,5.80
2022-10-23T11:22:22.869Z,5.90
2022-10-23T11:25:12.518Z,6.60
2022-10-23T11:28:03.539Z,6.10
2022-10-23T11:30:59.519Z,6.90
2022-10-23T11:33:45.660Z,6.50
2022-10-23T11:36:38.549Z,6.50
2022-10-23T11:39:29.723Z,6.40
2022-10-23T11:42:05.484Z,6.00
2022-10-23T11:44:35.393Z,5.80
2022-10-23T11:47:05.494Z,8.00
2022-10-23T11:49:32.985Z,8.30
2022-10-23T11:52:05.563Z,6.00
2022-10-23T11:54:32.771Z,5.70
2022-10-23T11:57:13.193Z,4.40
2022-10-23T11:59:49.102Z,4.50
2022-10-23T12:02:33.815Z,5.60
2022-10-23T12:05:06.094Z,6.20
2022-10-23T12:07:41.981Z,6.70
2022-10-23T12:10:46.682Z,11.00
2022-10-23T12:13:38.174Z,15.40
2022-10-23T12:16:07.720Z,8.00
2022-10-23T12:18:47.443Z,6.80
2022-10-23T12:21:20.939Z,7.60
2022-10-23T12:24:22.813Z,6.50
2022-10-23T12:27:14.500Z,8.30
2022-10-23T12:29:53.420Z,5.40
2022-10-23T12:32:54.790Z,4.90
2022-10-23T12:35:27.230Z,5.20
2022-10-23T12:37:55.294Z,4.00
2022-10-23T12:40:29.950Z,3.50
2022-10-23T12:42:59.918Z,3.30
2022-10-23T12:45:28.593Z,3.80
2022-10-23T12:47:55.307Z,4.60
2022-10-23T12:50:28.527Z,3.70
2022-10-23T12:53:07.843Z,3.60
2022-10-23T12:56:01.373Z,3.50
2022-10-23T12:58:34.679Z,4.90
2022-10-23T13:01:04.298Z,4.80
2022-10-23T13:03:33.566Z,4.50
2022-10-23T13:06:03.255Z,6.70
2022-10-23T13:08:42.623Z,8.00
2022-10-23T13:11:15.876Z,6.60
2022-10-23T13:13:42.997Z,5.30
2022-10-23T13:16:18.028Z,5.30
2022-10-23T13:18:45.174Z,13.20
2022-10-23T13:21:20.574Z,7.70
2022-10-23T13:23:48.738Z,5.90
2022-10-23T13:26:34.495Z,5.90
2022-10-23T13:29:07.519Z,5.90
2022-10-23T13:31:36.733Z,6.80
2022-10-23T13:34:07.021Z,6.10
2022-10-23T13:36:39.730Z,6.40
2022-10-23T13:39:09.864Z,7.10
2022-10-23T13:41:40.849Z,5.80
2022-10-23T13:44:09.972Z,5.30
2022-10-23T13:46:36.794Z,6.40
2022-10-23T13:49:03.573Z,9.50
2022-10-23T13:51:37.647Z,8.10
2022-10-23T13:54:16.004Z,8.60
2022-10-23T13:56:42.903Z,6.60
2022-10-23T13:59:13.296Z,9.70
2022-10-23T14:01:40.413Z,9.40
2022-10-23T14:04:08.003Z,11.60
2022-10-23T14:06:37.718Z,9.70
2022-10-23T14:09:07.534Z,10.80
2022-10-23T14:11:34.793Z,9.70
2022-10-23T14:14:02.213Z,7.30
2022-10-23T14:16:29.387Z,7.80
2022-10-23T14:18:56.532Z,7.30
2022-10-23T14:21:25.133Z,7.10
2022-10-23T14:23:53.697Z,7.00
2022-10-23T14:26:25.848Z,6.80
2022-10-23T14:28:54.195Z,7.30
2022-10-23T14:31:22.023Z,7.40
2022-10-23T14:33:56.532Z,6.90
2022-10-23T14:36:28.265Z,6.60
2022-10-23T14:39:01.353Z,6.90
2022-10-23T14:41:28.032Z,7.10
2022-10-23T14:43:54.749Z,6.80
2022-10-23T14:46:24.235Z,7.10
2022-10-23T14:48:55.796Z,7.50
2022-10-23T14:51:27.811Z,7.40
2022-10-23T14:54:02.006Z,7.80
2022-10-23T14:56:30.582Z,7.70
2022-10-23T14:59:03.252Z,9.60
2022-10-23T15:01:36.571Z,9.20
2022-10-23T15:04:04.237Z,8.80
2022-10-23T15:06:31.454Z,8.40
2022-10-23T15:08:58.283Z,9.50
2022-10-23T15:11:25.968Z,9.00
2022-10-23T15:13:55.235Z,9.90
2022-10-23T15:16:24.168Z,9.90
2022-10-23T15:18:52.218Z,11.90
2022-10-23T15:21:19.565Z,11.50
2022-10-23T15:23:46.848Z,12.80
2022-10-23T15:26:20.658Z,16.00
2022-10-23T15:28:48.646Z,17.20
2022-10-23T15:31:30.823Z,17.30
2022-10-23T15:33:57.939Z,17.20
2022-10-23T15:36:25.312Z,18.10
2022-10-23T15:38:52.655Z,20.50
2022-10-23T15:41:28.156Z,21.60
2022-10-23T15:43:55.011Z,23.60
2022-10-23T15:46:22.375Z,22.60
2022-10-23T15:48:50.355Z,27.90
2022-10-23T15:51:17.360Z,27.50
2022-10-23T15:53:44.089Z,30.10
2022-10-23T15:56:11.570Z,32.00
2022-10-23T15:58:39.454Z,31.90
2022-10-23T16:01:07.072Z,33.10
2022-10-23T16:03:35.224Z,32.20
2022-10-23T16:06:15.161Z,34.40
2022-10-23T16:08:44.075Z,35.00
2022-10-23T16:11:33.673Z,34.10
2022-10-23T16:14:00.963Z,35.30
2022-10-23T16:16:28.886Z,33.90
2022-10-23T16:18:58.570Z,32.50
2022-10-23T16:21:28.014Z,34.30
2022-10-23T16:23:57.570Z,33.40
2022-10-23T16:26:26.229Z,33.90
2022-10-23T16:28:58.433Z,32.60
2022-10-23T16:31:26.363Z,33.30
2022-10-23T16:33:54.720Z,35.50
2022-10-23T16:36:22.551Z,35.40
2022-10-23T16:38:52.502Z,34.50
2022-10-23T16:41:21.175Z,30.20
2022-10-23T16:43:48.481Z,31.00
2022-10-23T16:46:18.513Z,31.00
2022-10-23T16:48:46.016Z,31.50
2022-10-23T16:51:17.037Z,29.30
2022-10-23T16:53:45.601Z,30.50
2022-10-23T16:56:16.091Z,31.60
2022-10-23T16:58:44.314Z,33.00
2022-10-23T17:01:18.120Z,31.70
2022-10-23T17:03:51.254Z,32.10
2022-10-23T17:06:21.198Z,34.80
2022-10-23T17:08:49.049Z,34.10
2022-10-23T17:11:21.273Z,33.60
2022-10-23T17:13:58.551Z,32.90
2022-10-23T17:16:36.555Z,33.40
2022-10-23T17:19:15.833Z,33.10
2022-10-23T17:21:48.549Z,34.00
2022-10-23T17:24:15.435Z,34.00
2022-10-23T17:26:42.661Z,33.50
2022-10-23T17:29:12.284Z,33.10
2022-10-23T17:31:43.419Z,30.90
2022-10-23T17:34:20.142Z,31.80
2022-10-23T17:36:52.934Z,31.90
2022-10-23T17:39:23.899Z,31.10
2022-10-23T17:41:51.980Z,31.60
2022-10-23T17:44:19.707Z,31.20
2022-10-23T17:46:46.972Z,32.00
2022-10-23T17:49:14.294Z,30.10
2022-10-23T17:51:41.782Z,29.70
2022-10-23T17:54:12.301Z,28.70
2022-10-23T17:56:41.425Z,27.00
2022-10-23T17:59:14.148Z,28.40
2022-10-23T18:01:44.343Z,29.10
2022-10-23T18:04:13.803Z,28.30
2022-10-23T18:06:44.486Z,26.30
2022-10-23T18:09:11.918Z,25.60
2022-10-23T18:11:48.764Z,25.10
2022-10-23T18:14:19.041Z,25.00
2022-10-23T18:16:46.926Z,27.10
2022-10-23T18:19:16.256Z,27.40
2022-10-23T18:21:43.707Z,27.10
2022-10-23T18:24:10.873Z,27.30
2022-10-23T18:26:39.842Z,26.10
2022-10-23T18:29:09.312Z,25.40
2022-10-23T18:31:38.078Z,25.10
2022-10-23T18:34:09.917Z,25.10
2022-10-23T18:36:40.353Z,24.10
2022-10-23T18:39:10.022Z,24.50
2022-10-23T18:41:40.905Z,25.30
2022-10-23T18:44:09.841Z,24.90
2022-10-23T18:46:38.187Z,23.70
2022-10-23T18:49:06.087Z,23.50
2022-10-23T18:51:36.042Z,25.30
2022-10-23T18:54:06.126Z,25.70
2022-10-23T18:56:36.773Z,25.10
2022-10-23T18:59:08.325Z,24.30
2022-10-23T19:01:37.187Z,25.50
2022-10-23T19:04:05.773Z,23.80
2022-10-23T19:06:35.396Z,23.90
2022-10-23T19:09:07.526Z,23.70
2022-10-23T19:11:35.034Z,23.20
2022-10-23T19:14:02.355Z,23.10
2022-10-23T19:16:45.119Z,22.20
2022-10-23T19:19:17.714Z,23.40
2022-10-23T19:21:46.536Z,25.10
2022-10-23T19:24:22.910Z,25.00
2022-10-23T19:26:51.044Z,25.50
2022-10-23T19:29:21.870Z,25.80
2022-10-23T19:31:50.146Z,24.20
2022-10-23T19:34:23.418Z,23.60
2022-10-23T19:36:52.639Z,23.00
2022-10-23T19:39:20.881Z,22.40
2022-10-23T19:41:49.049Z,23.40
2022-10-23T19:44:16.320Z,21.10
2022-10-23T19:46:43.991Z,21.00
2022-10-23T19:49:11.851Z,20.10
2022-10-23T19:51:39.862Z,20.40
2022-10-23T19:54:07.298Z,21.30
2022-10-23T19:56:35.194Z,20.40
2022-10-23T19:59:01.970Z,20.70
2022-10-23T20:01:33.252Z,20.50
2022-10-23T20:04:01.197Z,20.70
2022-10-23T20:06:32.337Z,20.80
2022-10-23T20:08:59.502Z,20.40
2022-10-23T20:11:30.024Z,19.80
2022-10-23T20:13:58.550Z,20.30
2022-10-23T20:16:28.443Z,19.30
2022-10-23T20:18:56.564Z,19.50
2022-10-23T20:21:24.656Z,20.30
2022-10-23T20:23:52.108Z,21.70
2022-10-23T20:26:22.394Z,20.70
2022-10-23T20:28:53.304Z,20.70
2022-10-23T20:31:24.470Z,19.20
2022-10-23T20:33:52.269Z,19.20
2022-10-23T20:36:29.147Z,19.80
2022-10-23T20:38:58.675Z,19.90
2022-10-23T20:41:28.804Z,18.00
2022-10-23T20:43:56.593Z,18.70
2022-10-23T20:46:23.915Z,17.80
2022-10-23T20:48:52.591Z,18.40
2022-10-23T20:51:21.877Z,17.10
2022-10-23T20:53:50.535Z,15.60
2022-10-23T20:56:33.011Z,16.40
2022-10-23T20:59:01.154Z,16.10
2022-10-23T21:01:29.169Z,16.90
2022-10-23T21:03:57.569Z,18.00
2022-10-23T21:06:26.802Z,20.10
2022-10-23T21:08:58.509Z,18.90
2022-10-23T21:11:26.172Z,18.00
2022-10-23T21:13:53.586Z,19.30
2022-10-23T21:16:26.117Z,19.80
2022-10-23T21:18:56.460Z,22.10
2022-10-23T21:21:23.762Z,23.80
2022-10-23T21:23:52.506Z,26.50
2022-10-23T21:26:21.135Z,29.40
2022-10-23T21:28:56.402Z,32.40
2022-10-23T21:31:36.241Z,33.40
2022-10-23T21:34:03.732Z,36.10
2022-10-23T21:36:34.150Z,36.50
2022-10-23T21:39:04.271Z,30.60
2022-10-23T21:41:38.921Z,29.80
2022-10-23T21:44:06.271Z,26.40
2022-10-23T21:46:35.142Z,27.30
2022-10-23T21:49:02.168Z,26.40
2022-10-23T21:51:37.853Z,27.10
2022-10-23T21:54:07.546Z,26.00
2022-10-23T21:56:40.239Z,25.70
2022-10-23T21:59:12.886Z,26.80
2022-10-23T22:01:43.314Z,25.20
2022-10-23T22:04:14.983Z,23.10
2022-10-23T22:06:43.277Z,23.40
2022-10-23T22:09:13.131Z,22.60
2022-10-23T22:11:40.031Z,23.80
2022-10-23T22:14:06.865Z,23.30
2022-10-23T22:16:33.648Z,22.80
2022-10-23T22:19:00.461Z,21.50
2022-10-23T22:21:29.279Z,20.20
2022-10-23T22:23:58.369Z,19.50
2022-10-23T22:26:29.906Z,19.60
2022-10-23T22:28:59.524Z,18.70
2022-10-23T22:31:29.109Z,18.50
2022-10-23T22:33:56.925Z,17.80
2022-10-23T22:36:24.622Z,19.80
2022-10-23T22:38:51.835Z,21.60
2022-10-23T22:41:19.114Z,21.10
2022-10-23T22:43:45.882Z,19.30
2022-10-23T22:46:18.512Z,21.50
2022-10-23T22:48:46.143Z,19.10
2022-10-23T22:51:15.552Z,17.00
2022-10-23T22:53:43.376Z,15.90
2022-10-23T22:56:19.469Z,16.70
2022-10-23T22:58:47.288Z,17.00
2022-10-23T23:01:18.975Z,16.60
2022-10-23T23:03:46.489Z,16.50
2022-10-23T23:06:14.410Z,17.20
2022-10-23T23:08:41.941Z,16.90
2022-10-23T23:11:11.741Z,18.60
2022-10-23T23:13:39.299Z,16.90
2022-10-23T23:16:06.919Z,16.60
2022-10-23T23:18:34.757Z,18.30
2022-10-23T23:21:05.533Z,16.00
2022-10-23T23:23:32.787Z,15.90
2022-10-23T23:25:59.539Z,14.40
2022-10-23T23:28:26.436Z,14.00
2022-10-23T23:31:05.587Z,14.10
2022-10-23T23:33:32.387Z,13.90
2022-10-23T23:35:59.140Z,14.40
2022-10-23T23:38:26.143Z,17.00
2022-10-23T23:40:54.235Z,17.20
2022-10-23T23:43:21.074Z,17.10
2022-10-23T23:45:47.893Z,17.20
2022-10-23T23:48:14.648Z,15.10
2022-10-23T23:50:41.741Z,15.70
2022-10-23T23:53:08.766Z,14.60
2022-10-23T23:55:35.768Z,14.80
2022-10-23T23:58:02.503Z,14.30
